createdAt,value
2022-09-09T00:00:18.685Z,77.04
2022-09-09T00:02:55.841Z,77.60
2022-09-09T00:05:33.392Z,78.67
2022-09-09T00:08:06.572Z,79.43
2022-09-09T00:10:40.574Z,80.14
2022-09-09T00:13:18.263Z,80.97
2022-09-09T00:15:57.820Z,81.08
2022-09-09T00:18:31.485Z,81.84
2022-09-09T00:21:08.522Z,82.48
2022-09-09T00:23:41.570Z,82.91
2022-09-09T00:26:17.930Z,83.06
2022-09-09T00:28:53.589Z,83.20
2022-09-09T00:31:27.437Z,82.76
2022-09-09T00:33:57.132Z,83.12
2022-09-09T00:36:30.102Z,82.82
2022-09-09T00:39:02.567Z,83.93
2022-09-09T00:41:46.285Z,84.40
2022-09-09T00:44:27.346Z,85.48
2022-09-09T00:47:07.117Z,85.26
2022-09-09T00:49:49.597Z,85.99
2022-09-09T00:52:30.141Z,86.27
2022-09-09T00:55:05.707Z,86.35
2022-09-09T00:57:35.648Z,86.83
2022-09-09T01:00:24.252Z,87.17
2022-09-09T01:03:04.787Z,86.97
2022-09-09T01:05:42.077Z,86.38
2022-09-09T01:08:25.815Z,85.95
2022-09-09T01:10:54.935Z,86.04
2022-09-09T01:13:31.302Z,86.18
2022-09-09T01:16:03.555Z,87.04
2022-09-09T01:18:41.721Z,87.54
2022-09-09T01:21:19.460Z,87.62
2022-09-09T01:24:10.056Z,88.11
2022-09-09T01:27:05.820Z,87.16
2022-09-09T01:29:37.539Z,87.57
2022-09-09T01:32:40.370Z,88.05
2022-09-09T01:35:13.082Z,87.98
2022-09-09T01:37:41.850Z,88.97
2022-09-09T01:40:10.496Z,88.89
2022-09-09T01:42:41.295Z,88.38
2022-09-09T01:45:11.072Z,88.22
2022-09-09T01:47:40.043Z,87.83
2022-09-09T01:50:28.833Z,87.95
2022-09-09T01:53:00.491Z,88.31
2022-09-09T01:55:35.575Z,88.19
2022-09-09T01:58:30.253Z,88.19
2022-09-09T02:01:08.839Z,87.80
2022-09-09T02:03:37.657Z,88.42
2022-09-09T02:06:27.337Z,89.05
2022-09-09T02:09:04.593Z,88.72
2022-09-09T02:11:34.769Z,88.70
2022-09-09T02:14:15.104Z,88.68
2022-09-09T02:16:52.240Z,88.18
2022-09-09T02:19:27.972Z,87.77
2022-09-09T02:22:18.424Z,86.73
2022-09-09T02:24:47.375Z,85.46
2022-09-09T02:27:25.384Z,84.98
2022-09-09T02:29:58.455Z,85.08
2022-09-09T02:32:40.740Z,84.57
2022-09-09T02:35:16.629Z,84.06
2022-09-09T02:37:51.199Z,83.79
2022-09-09T02:40:19.894Z,83.83
2022-09-09T02:42:52.564Z,83.88
2022-09-09T02:45:29.601Z,83.39
2022-09-09T02:48:10.094Z,83.34
2022-09-09T02:50:48.058Z,82.55
2022-09-09T02:53:22.302Z,82.72
2022-09-09T02:55:57.020Z,82.47
2022-09-09T02:58:26.442Z,82.58
2022-09-09T03:01:02.229Z,82.90
2022-09-09T03:03:34.561Z,82.48
2022-09-09T03:06:07.378Z,82.98
2022-09-09T03:08:35.404Z,83.65
2022-09-09T03:11:03.297Z,83.70
2022-09-09T03:13:34.822Z,84.12
2022-09-09T03:16:06.189Z,83.95
2022-09-09T03:18:39.931Z,84.19
2022-09-09T03:21:09.704Z,84.27
2022-09-09T03:23:40.892Z,84.56
2022-09-09T03:26:09.676Z,84.47
2022-09-09T03:28:46.456Z,84.22
2022-09-09T03:31:20.579Z,84.72
2022-09-09T03:33:48.957Z,85.20
2022-09-09T03:36:19.529Z,84.51
2022-09-09T03:38:47.804Z,83.92
2022-09-09T03:41:15.849Z,83.77
2022-09-09T03:43:45.781Z,84.44
2022-09-09T03:46:13.676Z,84.70
2022-09-09T03:48:43.051Z,85.59
2022-09-09T03:51:11.651Z,86.41
2022-09-09T03:53:40.127Z,87.79
2022-09-09T03:56:09.497Z,89.08
2022-09-09T03:58:40.367Z,89.83
2022-09-09T04:01:12.007Z,90.00
2022-09-09T04:03:40.681Z,91.08
2022-09-09T04:06:14.523Z,91.11
2022-09-09T04:08:49.456Z,91.24
2022-09-09T04:11:18.973Z,91.33
2022-09-09T04:13:50.187Z,90.93
2022-09-09T04:16:19.902Z,91.03
2022-09-09T04:18:48.574Z,90.58
2022-09-09T04:21:19.250Z,90.91
2022-09-09T04:23:47.693Z,90.80
2022-09-09T04:26:16.011Z,90.39
2022-09-09T04:28:46.588Z,90.25
2022-09-09T04:31:21.335Z,90.18
2022-09-09T04:33:51.639Z,89.54
2022-09-09T04:36:22.156Z,88.88
2022-09-09T04:38:52.475Z,88.50
2022-09-09T04:41:22.025Z,88.98
2022-09-09T04:43:53.470Z,89.35
2022-09-09T04:46:24.650Z,90.46
2022-09-09T04:48:55.755Z,90.44
2022-09-09T04:51:32.213Z,91.48
2022-09-09T04:54:00.760Z,92.31
2022-09-09T04:56:29.191Z,92.33
2022-09-09T04:58:59.501Z,92.88
2022-09-09T05:01:48.901Z,93.52
2022-09-09T05:04:17.751Z,93.61
2022-09-09T05:06:47.532Z,94.58
2022-09-09T05:09:16.120Z,94.54
2022-09-09T05:11:45.772Z,93.79
2022-09-09T05:14:23.866Z,93.92
2022-09-09T05:16:55.173Z,93.68
2022-09-09T05:19:24.474Z,93.73
2022-09-09T05:21:55.483Z,93.29
2022-09-09T05:24:29.482Z,92.21
2022-09-09T05:27:02.562Z,91.98
2022-09-09T05:29:30.695Z,91.18
2022-09-09T05:31:58.795Z,90.87
2022-09-09T05:34:26.880Z,89.85
2022-09-09T05:36:59.520Z,90.01
2022-09-09T05:39:39.060Z,89.63
2022-09-09T05:42:07.612Z,89.35
2022-09-09T05:44:35.658Z,90.14
2022-09-09T05:47:04.189Z,91.27
2022-09-09T05:49:32.845Z,91.31
2022-09-09T05:52:07.956Z,92.05
2022-09-09T05:54:36.411Z,92.86
2022-09-09T05:57:04.788Z,92.96
2022-09-09T05:59:33.398Z,93.12
2022-09-09T06:02:02.299Z,93.27
2022-09-09T06:04:35.961Z,92.82
2022-09-09T06:07:07.217Z,90.49
2022-09-09T06:09:35.320Z,88.72
2022-09-09T06:12:04.287Z,86.70
2022-09-09T06:14:36.134Z,84.81
2022-09-09T06:17:04.074Z,82.54
2022-09-09T06:19:32.865Z,80.12
2022-09-09T06:22:03.338Z,79.80
2022-09-09T06:24:36.234Z,78.13
2022-09-09T06:27:06.571Z,77.15
2022-09-09T06:29:39.507Z,76.73
2022-09-09T06:32:09.756Z,76.38
2022-09-09T06:34:37.955Z,75.06
2022-09-09T06:37:07.855Z,74.59
2022-09-09T06:39:42.783Z,73.10
2022-09-09T06:42:10.823Z,72.71
2022-09-09T06:44:53.506Z,72.56
2022-09-09T06:47:45.604Z,72.90
2022-09-09T06:50:13.375Z,74.44
2022-09-09T06:52:41.306Z,73.97
2022-09-09T06:55:14.042Z,73.50
2022-09-09T06:57:42.946Z,73.23
2022-09-09T07:00:16.534Z,72.92
2022-09-09T07:02:45.534Z,72.87
2022-09-09T07:05:14.395Z,74.25
2022-09-09T07:07:44.362Z,75.09
2022-09-09T07:10:15.467Z,75.72
2022-09-09T07:12:44.137Z,75.46
2022-09-09T07:15:14.770Z,76.24
2022-09-09T07:17:46.004Z,76.05
2022-09-09T07:20:15.804Z,76.50
2022-09-09T07:22:43.893Z,77.24
2022-09-09T07:25:12.745Z,76.69
2022-09-09T07:27:42.167Z,75.87
2022-09-09T07:30:14.765Z,73.98
2022-09-09T07:32:47.371Z,73.86
2022-09-09T07:35:17.473Z,73.50
2022-09-09T07:37:51.022Z,74.94
2022-09-09T07:40:23.338Z,73.65
2022-09-09T07:42:54.865Z,74.75
2022-09-09T07:45:23.331Z,74.28
2022-09-09T07:47:52.026Z,74.23
2022-09-09T07:50:20.849Z,72.52
2022-09-09T07:52:49.703Z,71.90
2022-09-09T07:55:20.775Z,70.81
2022-09-09T07:57:49.071Z,70.88
2022-09-09T08:00:21.179Z,70.29
2022-09-09T08:02:55.262Z,68.68
2022-09-09T08:05:24.544Z,67.93
2022-09-09T08:07:52.736Z,66.51
2022-09-09T08:10:20.562Z,65.82
2022-09-09T08:13:07.759Z,65.86
2022-09-09T08:15:40.713Z,65.63
2022-09-09T08:18:10.333Z,65.76
2022-09-09T08:20:40.192Z,65.09
2022-09-09T08:23:08.724Z,64.25
2022-09-09T08:25:37.915Z,65.38
2022-09-09T08:28:08.876Z,64.94
2022-09-09T08:30:38.474Z,64.57
2022-09-09T08:33:11.436Z,64.28
2022-09-09T08:35:39.505Z,64.58
2022-09-09T08:38:10.984Z,63.43
2022-09-09T08:40:50.289Z,63.99
2022-09-09T08:43:23.867Z,65.00
2022-09-09T08:46:02.320Z,63.87
2022-09-09T08:48:51.076Z,63.26
2022-09-09T08:51:20.873Z,63.04
2022-09-09T08:53:54.469Z,61.92
2022-09-09T08:56:28.590Z,62.20
2022-09-09T08:59:04.887Z,60.99
2022-09-09T09:01:51.343Z,59.73
2022-09-09T09:04:40.526Z,58.97
2022-09-09T09:07:22.134Z,58.18
2022-09-09T09:10:11.817Z,58.41
2022-09-09T09:12:50.075Z,57.45
2022-09-09T09:15:23.300Z,57.19
2022-09-09T09:17:53.402Z,56.34
2022-09-09T09:20:31.104Z,57.51
2022-09-09T09:23:05.002Z,57.22
2022-09-09T09:25:37.555Z,59.30
2022-09-09T09:28:18.527Z,60.99
2022-09-09T09:30:54.683Z,62.82
2022-09-09T09:33:29.668Z,59.96
2022-09-09T09:36:01.960Z,53.65
2022-09-09T09:41:31.151Z,49.59
2022-09-09T09:44:00.427Z,49.07
2022-09-09T09:46:30.859Z,53.36
2022-09-09T09:49:11.820Z,56.32
2022-09-09T09:51:46.857Z,63.39
2022-09-09T09:54:25.094Z,68.61
2022-09-09T09:56:57.821Z,75.88
2022-09-09T09:59:39.768Z,76.80
2022-09-09T10:02:17.870Z,75.34
2022-09-09T10:04:48.647Z,75.28
2022-09-09T10:07:24.890Z,78.30
2022-09-09T10:09:57.217Z,78.51
2022-09-09T10:12:37.650Z,80.19
2022-09-09T10:15:18.203Z,81.58
2022-09-09T10:18:03.028Z,79.52
2022-09-09T10:20:41.361Z,68.56
2022-09-09T10:23:23.084Z,56.70
2022-09-09T10:26:09.592Z,49.27
2022-09-09T10:28:56.756Z,45.72
2022-09-09T10:31:32.633Z,46.62
2022-09-09T10:34:09.269Z,43.74
2022-09-09T10:36:43.020Z,44.93
2022-09-09T10:39:27.772Z,43.86
2022-09-09T10:42:04.880Z,39.70
2022-09-09T10:44:43.992Z,36.95
2022-09-09T10:47:42.022Z,34.54
2022-09-09T10:51:05.468Z,34.52
2022-09-09T10:53:39.879Z,31.80
2022-09-09T10:56:13.193Z,30.95
2022-09-09T10:58:46.831Z,29.23
2022-09-09T11:01:21.579Z,29.97
2022-09-09T11:03:55.812Z,32.74
2022-09-09T11:06:29.196Z,36.44
2022-09-09T11:09:02.534Z,39.12
2022-09-09T11:11:41.693Z,39.38
2022-09-09T11:14:17.566Z,38.73
2022-09-09T11:16:52.020Z,40.71
2022-09-09T11:19:28.741Z,40.91
2022-09-09T11:21:59.747Z,39.64
2022-09-09T11:24:33.679Z,34.48
2022-09-09T11:27:13.274Z,37.79
2022-09-09T11:30:02.511Z,40.35
2022-09-09T11:32:55.040Z,42.55
2022-09-09T11:35:41.481Z,42.67
2022-09-09T11:38:22.162Z,42.34
2022-09-09T11:40:58.970Z,43.57
2022-09-09T11:43:34.541Z,44.08
2022-09-09T11:46:07.109Z,46.83
2022-09-09T11:48:38.709Z,47.83
2022-09-09T11:51:14.562Z,42.88
2022-09-09T11:53:52.936Z,36.09
2022-09-09T11:56:29.637Z,37.67
2022-09-09T11:59:02.978Z,35.34
2022-09-09T12:01:52.910Z,34.84
2022-09-09T12:04:38.539Z,38.94
2022-09-09T12:07:25.716Z,42.39
2022-09-09T12:09:57.692Z,45.61
2022-09-09T12:12:31.815Z,48.11
2022-09-09T12:15:24.510Z,44.92
2022-09-09T12:17:56.522Z,42.14
2022-09-09T12:20:35.536Z,42.18
2022-09-09T12:23:26.585Z,43.38
2022-09-09T12:26:05.560Z,45.00
2022-09-09T12:28:48.741Z,45.73
2022-09-09T12:31:24.358Z,45.86
2022-09-09T12:33:53.769Z,47.74
2022-09-09T12:36:25.045Z,59.62
2022-09-09T12:38:53.574Z,69.28
2022-09-09T12:41:24.541Z,73.80
2022-09-09T12:43:52.994Z,75.19
2022-09-09T12:46:40.078Z,73.54
2022-09-09T12:49:26.398Z,69.18
2022-09-09T12:51:55.030Z,66.28
2022-09-09T12:54:24.579Z,60.34
2022-09-09T12:56:55.177Z,56.78
2022-09-09T12:59:27.586Z,55.21
2022-09-09T13:02:01.216Z,53.61
2022-09-09T13:04:29.963Z,57.25
2022-09-09T13:07:12.659Z,60.90
2022-09-09T13:09:41.804Z,62.59
2022-09-09T13:12:16.754Z,65.49
2022-09-09T13:14:50.793Z,67.69
2022-09-09T13:17:29.407Z,67.92
2022-09-09T13:19:59.024Z,67.59
2022-09-09T13:22:34.594Z,64.31
2022-09-09T13:25:10.430Z,62.49
2022-09-09T13:27:44.812Z,59.79
2022-09-09T13:30:26.627Z,60.01
2022-09-09T13:33:23.540Z,60.07
2022-09-09T13:35:58.503Z,59.79
2022-09-09T13:38:27.818Z,56.89
2022-09-09T13:41:03.102Z,54.86
2022-09-09T13:43:37.087Z,46.14
2022-09-09T13:46:08.520Z,36.52
2022-09-09T13:48:39.416Z,29.03
2022-09-09T13:51:07.467Z,29.63
2022-09-09T13:53:35.288Z,31.98
2022-09-09T13:56:03.853Z,36.76
2022-09-09T13:58:32.443Z,40.46
2022-09-09T14:01:00.763Z,44.33
2022-09-09T14:03:28.959Z,47.80
2022-09-09T14:05:58.885Z,48.95
2022-09-09T14:08:29.796Z,47.63
2022-09-09T14:10:59.394Z,47.70
2022-09-09T14:13:27.466Z,48.24
2022-09-09T14:15:55.736Z,48.12
2022-09-09T14:18:26.334Z,47.37
2022-09-09T14:20:55.019Z,48.67
2022-09-09T14:23:25.341Z,49.52
2022-09-09T14:25:54.091Z,50.94
2022-09-09T14:28:39.451Z,50.91
2022-09-09T14:31:14.588Z,51.30
2022-09-09T14:33:49.880Z,51.84
2022-09-09T14:36:18.015Z,53.33
2022-09-09T14:38:47.688Z,53.79
2022-09-09T14:41:18.881Z,55.33
2022-09-09T14:43:47.355Z,55.91
2022-09-09T14:46:16.771Z,58.11
2022-09-09T14:48:45.124Z,58.91
2022-09-09T14:51:16.787Z,59.27
2022-09-09T14:53:45.880Z,58.10
2022-09-09T14:56:17.594Z,57.40
2022-09-09T14:58:48.945Z,56.58
2022-09-09T15:01:19.564Z,56.64
2022-09-09T15:03:52.889Z,56.36
2022-09-09T15:06:22.772Z,55.90
2022-09-09T15:08:53.589Z,55.83
2022-09-09T15:11:25.654Z,56.13
2022-09-09T15:13:55.451Z,56.30
2022-09-09T15:16:26.236Z,58.05
2022-09-09T15:18:56.222Z,57.06
2022-09-09T15:21:25.826Z,53.04
2022-09-09T15:23:54.270Z,47.38
2022-09-09T15:26:24.174Z,41.73
2022-09-09T15:28:52.456Z,41.13
2022-09-09T15:31:21.850Z,42.92
2022-09-09T15:33:50.656Z,42.81
2022-09-09T15:36:20.842Z,42.10
2022-09-09T15:38:51.656Z,41.32
2022-09-09T15:41:22.073Z,41.83
2022-09-09T15:43:52.846Z,42.21
2022-09-09T15:46:28.877Z,44.93
2022-09-09T15:48:58.084Z,48.40
2022-09-09T15:51:44.275Z,51.88
2022-09-09T15:54:15.035Z,54.98
2022-09-09T15:56:44.028Z,55.65
2022-09-09T15:59:13.635Z,57.27
2022-09-09T16:01:43.227Z,58.44
2022-09-09T16:04:12.493Z,60.25
2022-09-09T16:06:40.889Z,62.17
2022-09-09T16:09:11.126Z,62.47
2022-09-09T16:11:41.664Z,63.36
2022-09-09T16:14:09.974Z,63.70
2022-09-09T16:16:39.963Z,62.90
2022-09-09T16:19:11.021Z,62.49
2022-09-09T16:21:42.027Z,62.63
2022-09-09T16:24:12.508Z,63.28
2022-09-09T16:26:44.050Z,64.44
2022-09-09T16:29:12.176Z,65.26
2022-09-09T16:31:41.653Z,64.66
2022-09-09T16:34:10.505Z,64.62
2022-09-09T16:36:41.668Z,65.45
2022-09-09T16:39:12.066Z,65.12
2022-09-09T16:41:41.579Z,65.36
2022-09-09T16:44:13.507Z,65.61
2022-09-09T16:46:44.565Z,65.40
2022-09-09T16:49:14.389Z,65.00
2022-09-09T16:51:44.731Z,65.25
2022-09-09T16:54:14.965Z,65.73
2022-09-09T16:56:44.818Z,65.68
2022-09-09T16:59:15.973Z,65.57
2022-09-09T17:01:46.823Z,66.07
2022-09-09T17:04:23.646Z,66.08
2022-09-09T17:06:53.145Z,65.94
2022-09-09T17:09:23.383Z,66.29
2022-09-09T17:11:53.518Z,66.42
2022-09-09T17:14:24.700Z,67.09
2022-09-09T17:16:54.989Z,67.74
2022-09-09T17:19:23.094Z,68.23
2022-09-09T17:22:16.934Z,69.42
2022-09-09T17:24:41.554Z,70.79
2022-09-09T17:27:09.938Z,71.77
2022-09-09T17:29:37.787Z,72.21
2022-09-09T17:32:08.483Z,74.44
2022-09-09T17:34:37.121Z,82.13
2022-09-09T17:37:07.011Z,88.04
2022-09-09T17:39:35.005Z,92.30
2022-09-09T17:42:03.546Z,95.25
2022-09-09T17:44:33.318Z,97.41
2022-09-09T17:47:01.632Z,98.63
2022-09-09T17:49:35.155Z,99.27
2022-09-09T17:52:03.898Z,99.81
2022-09-09T17:54:34.170Z,100.00
2022-09-09T17:57:02.168Z,100.00
2022-09-09T17:59:30.157Z,100.00
2022-09-09T18:02:01.186Z,100.00
2022-09-09T18:07:56.453Z,100.00
2022-09-09T18:10:26.287Z,100.00
2022-09-09T18:12:55.389Z,100.00
2022-09-09T18:15:48.238Z,100.00
2022-09-09T18:18:14.239Z,100.00
2022-09-09T18:20:44.743Z,100.00
2022-09-09T18:23:14.084Z,100.00
2022-09-09T18:25:42.975Z,100.00
2022-09-09T18:28:11.938Z,100.00
2022-09-09T18:30:41.653Z,99.77
2022-09-09T18:33:10.232Z,99.73
2022-09-09T18:35:39.224Z,99.13
2022-09-09T18:38:08.335Z,100.00
2022-09-09T18:40:37.889Z,100.00
2022-09-09T18:43:05.990Z,100.00
2022-09-09T18:45:38.208Z,100.00
2022-09-09T18:48:06.736Z,100.00
2022-09-09T18:50:36.137Z,100.00
2022-09-09T18:53:04.276Z,100.00
2022-09-09T18:55:32.849Z,100.00
2022-09-09T18:58:03.512Z,100.00
2022-09-09T19:00:32.908Z,100.00
2022-09-09T19:03:01.203Z,100.00
2022-09-09T19:05:31.741Z,100.00
2022-09-09T19:08:00.687Z,100.00
2022-09-09T19:10:30.900Z,100.00
2022-09-09T19:12:59.685Z,100.00
2022-09-09T19:15:33.359Z,100.00
2022-09-09T19:18:05.753Z,100.00
2022-09-09T19:20:34.264Z,100.00
2022-09-09T19:23:02.685Z,100.00
2022-09-09T19:25:32.289Z,100.00
2022-09-09T19:28:07.458Z,100.00
2022-09-09T19:30:37.501Z,100.00
2022-09-09T19:33:05.754Z,100.00
2022-09-09T19:35:34.168Z,100.00
2022-09-09T19:38:04.242Z,100.00
2022-09-09T19:40:34.979Z,100.00
2022-09-09T19:43:05.558Z,100.00
2022-09-09T19:45:34.287Z,100.00
2022-09-09T19:48:06.737Z,100.00
2022-09-09T19:50:37.329Z,100.00
2022-09-09T21:10:11.071Z,100.00
2022-09-09T21:12:39.385Z,100.00
2022-09-09T21:15:07.894Z,100.00
2022-09-09T21:17:35.777Z,100.00
2022-09-09T21:20:04.488Z,100.00
2022-09-09T21:22:32.487Z,100.00
2022-09-09T21:25:00.644Z,100.00
2022-09-09T21:27:30.102Z,100.00
2022-09-09T21:29:58.060Z,100.00
2022-09-09T21:32:25.857Z,100.00
2022-09-09T21:34:53.596Z,100.00
2022-09-09T21:37:21.589Z,100.00
2022-09-09T21:39:50.458Z,100.00
2022-09-09T21:42:18.337Z,100.00
2022-09-09T21:44:47.913Z,100.00
2022-09-09T21:47:16.176Z,100.00
2022-09-09T21:49:44.161Z,100.00
2022-09-09T21:52:12.411Z,100.00
2022-09-09T21:54:43.784Z,100.00
2022-09-09T21:57:14.287Z,100.00
2022-09-09T21:59:42.687Z,100.00
2022-09-09T22:02:14.233Z,100.00
2022-09-09T22:04:43.315Z,100.00
2022-09-09T22:07:12.030Z,100.00
2022-09-09T22:09:39.989Z,100.00
2022-09-09T22:12:10.108Z,100.00
2022-09-09T22:14:38.706Z,100.00
2022-09-09T22:17:07.420Z,100.00
2022-09-09T22:19:36.665Z,100.00
2022-09-09T22:22:04.847Z,100.00
2022-09-09T22:24:33.099Z,100.00
2022-09-09T22:27:01.401Z,100.00
2022-09-09T22:29:29.510Z,100.00
2022-09-09T22:31:57.787Z,100.00
2022-09-09T22:34:28.753Z,100.00
2022-09-09T22:36:58.436Z,100.00
2022-09-09T22:39:26.321Z,100.00
2022-09-09T22:41:53.984Z,100.00
2022-09-09T22:44:23.086Z,100.00
2022-09-09T22:46:51.546Z,100.00
2022-09-09T22:49:20.226Z,100.00
2022-09-09T22:51:48.037Z,100.00
2022-09-09T22:54:21.630Z,100.00
2022-09-09T22:56:49.634Z,100.00
2022-09-09T22:59:18.217Z,100.00
2022-09-09T23:01:46.806Z,100.00
2022-09-09T23:04:15.116Z,100.00
2022-09-09T23:06:44.976Z,100.00
2022-09-09T23:09:13.257Z,100.00
2022-09-09T23:11:42.565Z,100.00
2022-09-09T23:14:12.795Z,100.00
2022-09-09T23:16:43.961Z,100.00
2022-09-09T23:19:16.040Z,100.00
2022-09-09T23:21:46.092Z,100.00
2022-09-09T23:24:16.785Z,100.00
2022-09-09T23:26:47.530Z,100.00
2022-09-09T23:29:16.047Z,100.00
2022-09-09T23:31:46.261Z,100.00
2022-09-09T23:34:14.968Z,100.00
2022-09-09T23:36:43.296Z,100.00
2022-09-09T23:39:13.264Z,100.00
2022-09-09T23:41:41.464Z,100.00
2022-09-09T23:44:13.151Z,100.00
2022-09-09T23:46:41.296Z,100.00
2022-09-09T23:49:10.018Z,100.00
2022-09-09T23:51:41.608Z,100.00
2022-09-09T23:54:10.776Z,100.00
2022-09-09T23:56:41.302Z,100.00
2022-09-09T23:59:13.857Z,100.00
